Time;durP1;ratioP1;P1;durP2;ratioP2;P2;SDS_P1;SDS_P2;PMS_P1;PMS_P2;Temp;Humidity;BMP_temperature;BMP_pressure;BME280_temperature;BME280_humidity;BME280_pressure;Samples;Min_cycle;Max_cycle;Signal;HPM_P1;HPM_P2
2022/03/08 00:00:07;;;;;;;16.05;9.05;;;2.70;80.00;;;0.06;76.00;101409.78;4989204;28;20125;-81
2022/03/08 00:02:38;;;;;;;15.07;8.38;;;2.60;79.90;;;-0.06;75.56;101408.72;4989981;28;20069;-81
2022/03/08 00:05:08;;;;;;;12.77;8.18;;;2.60;79.90;;;-0.09;75.86;101408.91;4989392;28;20076;-81
2022/03/08 00:07:36;;;;;;;14.23;8.13;;;2.60;79.70;;;-0.10;75.63;101404.47;4989903;28;20133;-81
2022/03/08 00:10:08;;;;;;;18.58;7.88;;;2.50;79.70;;;-0.12;77.06;101414.41;4989716;28;20046;-81
2022/03/08 00:12:35;;;;;;;12.95;7.45;;;2.50;80.10;;;-0.06;75.70;101411.41;4989768;28;20065;-81
2022/03/08 00:15:06;;;;;;;12.57;7.60;;;2.50;80.00;;;-0.12;75.54;101422.44;4989441;28;20488;-81
2022/03/08 00:17:33;;;;;;;14.10;7.18;;;2.50;80.00;;;-0.09;75.90;101410.72;4989286;28;20073;-81
2022/03/08 00:20:00;;;;;;;10.88;7.20;;;2.50;80.10;;;-0.10;75.53;101412.50;4989344;28;20050;-81
2022/03/08 00:22:29;;;;;;;13.63;7.60;;;2.50;80.00;;;-0.10;75.63;101417.88;4989617;28;20043;-81
2022/03/08 00:24:56;;;;;;;15.98;8.02;;;2.50;80.10;;;-0.22;75.95;101415.94;4989376;28;20085;-81
2022/03/08 00:27:23;;;;;;;15.32;7.53;;;2.40;79.90;;;-0.30;76.29;101416.41;4989507;28;20050;-81
2022/03/08 00:29:50;;;;;;;13.85;7.70;;;2.40;80.00;;;-0.34;76.96;101409.53;4987501;28;20082;-81
2022/03/08 00:32:18;;;;;;;13.52;8.23;;;2.40;80.30;;;-0.35;77.02;101410.47;4978718;28;20050;-81
2022/03/08 00:38:46;;;;;;;15.30;7.22;;;2.40;80.70;;;-0.28;77.37;101410.97;4991148;28;20049;-81
2022/03/08 00:41:14;;;;;;;13.88;7.25;;;2.30;80.80;;;-0.24;77.61;101404.47;4991150;28;20504;-81
2022/03/08 00:43:42;;;;;;;13.10;7.47;;;2.20;81.10;;;-0.31;77.30;101405.78;4992912;28;20054;-81
2022/03/08 00:46:09;;;;;;;13.50;7.45;;;2.30;81.10;;;-0.38;77.58;101404.44;4993240;28;20074;-81
2022/03/08 00:48:36;;;;;;;12.88;7.00;;;2.20;81.00;;;-0.36;78.11;101397.19;4991529;28;20061;-81
2022/03/08 00:51:03;;;;;;;13.48;7.55;;;2.20;81.10;;;-0.40;77.62;101397.38;4992413;28;20042;-81
2022/03/08 00:53:31;;;;;;;11.73;6.82;;;2.20;80.90;;;-0.51;78.01;101391.81;4992752;28;20053;-81
2022/03/08 00:55:59;;;;;;;11.38;7.13;;;2.20;80.90;;;-0.51;78.25;101389.16;4992850;28;20543;-81
2022/03/08 00:58:27;;;;;;;13.40;8.25;;;2.20;81.20;;;-0.49;78.63;101387.25;4992838;28;20122;-81
2022/03/08 01:00:54;;;;;;;13.18;7.57;;;2.20;81.30;;;-0.46;78.87;101381.72;4992044;28;20654;-81
2022/03/08 01:03:21;;;;;;;11.18;6.82;;;2.20;81.40;;;-0.59;79.08;101380.72;4992578;28;20042;-81
2022/03/08 01:05:49;;;;;;;12.10;7.32;;;2.10;81.50;;;-0.61;78.99;101372.78;4992574;28;20048;-81
2022/03/08 01:08:16;;;;;;;17.15;7.60;;;2.10;81.50;;;-0.66;79.35;101369.53;4992567;28;20061;-81
2022/03/08 01:10:44;;;;;;;13.18;7.75;;;2.10;81.60;;;-0.68;79.07;101370.56;4985504;28;20130;-81
2022/03/08 01:13:12;;;;;;;11.80;7.32;;;2.10;81.60;;;-0.66;79.23;101364.19;4989753;28;20691;-81
2022/03/08 01:15:39;;;;;;;11.38;6.82;;;2.20;81.80;;;-0.72;79.56;101366.34;4992449;28;20671;-81
2022/03/08 01:18:07;;;;;;;15.48;7.85;;;2.00;81.70;;;-0.70;79.76;101361.78;4992660;28;20105;-81
2022/03/08 01:24:36;;;;;;;13.30;7.00;;;2.00;82.20;;;-0.61;78.89;101359.44;4992499;28;20053;-81
2022/03/08 01:27:04;;;;;;;12.05;7.15;;;2.00;82.10;;;-0.65;79.47;101362.34;4992418;28;20042;-81
2022/03/08 01:29:33;;;;;;;12.88;7.03;;;2.00;82.20;;;-0.70;79.37;101365.31;4992459;28;20527;-81
2022/03/08 01:32:00;;;;;;;10.82;6.82;;;1.90;82.20;;;-0.75;79.49;101363.88;4990289;28;20513;-81
2022/03/08 01:34:28;;;;;;;10.90;6.68;;;1.90;82.10;;;-0.65;79.41;101359.69;4992340;28;20038;-81
2022/03/08 01:36:55;;;;;;;11.82;6.75;;;2.00;82.30;;;-0.67;79.66;101356.25;4992161;28;20481;-81
2022/03/08 01:39:23;;;;;;;13.45;6.90;;;1.90;82.40;;;-0.76;79.50;101346.97;4992373;28;20089;-81
2022/03/08 01:41:52;;;;;;;11.93;6.82;;;1.90;82.30;;;-0.75;80.18;101347.84;4990283;28;20660;-81
2022/03/08 01:44:19;;;;;;;10.80;6.50;;;1.80;82.60;;;-0.67;79.86;101353.56;4992161;28;20077;-81
2022/03/08 01:46:48;;;;;;;11.52;7.22;;;1.80;82.50;;;-0.69;79.46;101356.34;4992318;28;20088;-81
2022/03/08 01:49:17;;;;;;;13.50;7.25;;;1.80;82.50;;;-0.79;79.41;101353.34;4990639;28;20149;-81
2022/03/08 01:51:44;;;;;;;12.38;7.03;;;1.80;82.50;;;-0.86;79.67;101351.97;4990119;28;20501;-81
2022/03/08 01:58:11;;;;;;;16.15;7.03;;;1.80;82.60;;;-1.02;81.35;101335.16;4992047;28;20053;-81
2022/03/08 02:00:40;;;;;;;14.15;8.05;;;1.70;82.80;;;-1.04;81.26;101334.38;4991331;28;20464;-82
2022/03/08 02:03:08;;;;;;;15.82;8.82;;;1.70;83.00;;;-1.00;81.32;101328.75;4991638;28;20050;-81
2022/03/08 02:05:36;;;;;;;17.23;9.35;;;1.70;83.10;;;-0.95;81.29;101325.81;4991914;28;20070;-81
2022/03/08 02:08:03;;;;;;;17.67;8.25;;;1.80;83.10;;;-0.92;80.72;101314.94;4991645;28;20485;-81
2022/03/08 02:10:30;;;;;;;17.77;7.93;;;1.80;82.90;;;-0.85;80.82;101313.63;4991082;28;20053;-81
2022/03/08 02:12:58;;;;;;;16.73;8.80;;;1.80;82.90;;;-0.90;80.50;101313.03;4991542;28;20496;-81
2022/03/08 02:15:28;;;;;;;17.27;7.95;;;1.80;82.80;;;-0.85;80.43;101310.97;4991479;28;20121;-81
2022/03/08 02:17:57;;;;;;;17.52;8.23;;;1.80;82.80;;;-0.90;80.63;101309.50;4991392;28;20129;-81
2022/03/08 02:20:27;;;;;;;14.00;7.78;;;1.80;82.90;;;-1.00;81.04;101312.72;4990532;28;20492;-81
2022/03/08 02:26:59;;;;;;;12.00;7.50;;;1.60;83.40;;;-1.06;81.40;101313.09;4991501;28;20053;-81
2022/03/08 02:29:27;;;;;;;13.18;7.53;;;1.60;83.40;;;-1.07;81.75;101313.19;4991305;28;20054;-81
2022/03/08 02:31:55;;;;;;;14.20;7.75;;;1.60;83.50;;;-1.06;81.82;101314.91;4989500;28;20105;-81
2022/03/08 02:34:22;;;;;;;14.57;7.88;;;1.60;83.80;;;-1.08;82.19;101315.00;4991181;28;20524;-81
2022/03/08 02:40:49;;;;;;;15.20;7.32;;;1.60;83.90;;;-1.07;81.51;101310.50;4990551;28;20093;-81
2022/03/08 02:43:18;;;;;;;14.52;7.97;;;1.60;83.60;;;-1.08;82.29;101308.81;4990687;28;20081;-81
2022/03/08 02:45:46;;;;;;;16.17;8.07;;;1.60;83.70;;;-1.15;82.08;101310.94;4991062;28;20046;-81
2022/03/08 02:48:13;;;;;;;14.40;7.60;;;1.60;83.70;;;-1.14;82.23;101303.78;4990907;28;20045;-81
2022/03/08 02:50:40;;;;;;;12.95;7.43;;;1.60;83.60;;;-1.19;82.08;101302.25;4990410;28;20108;-81
2022/03/08 02:53:08;;;;;;;17.98;7.97;;;1.50;83.70;;;-1.28;82.62;101308.13;4990905;28;20126;-81
2022/03/08 02:55:37;;;;;;;14.80;7.70;;;1.50;83.80;;;-1.28;83.54;101312.63;4990888;28;20408;-81
2022/03/08 02:58:06;;;;;;;15.45;8.45;;;1.50;84.20;;;-1.31;83.72;101310.16;4989323;28;20042;-81
2022/03/08 03:00:35;;;;;;;14.93;8.35;;;1.50;84.50;;;-1.37;83.92;101319.38;4989778;28;20050;-81
2022/03/08 03:03:04;;;;;;;14.05;7.55;;;1.40;84.60;;;-1.42;83.88;101313.41;4990814;28;20043;-81
2022/03/08 03:05:31;;;;;;;13.90;7.65;;;1.50;84.70;;;-1.49;84.39;101309.38;4990442;28;20408;-81
2022/03/08 03:08:00;;;;;;;12.20;7.80;;;1.40;84.70;;;-1.54;84.99;101312.31;4990298;28;20121;-81
2022/03/08 03:10:28;;;;;;;14.18;7.80;;;1.30;84.90;;;-1.49;84.19;101312.03;4990108;28;20133;-81
2022/03/08 03:12:57;;;;;;;12.35;7.55;;;1.30;85.00;;;-1.50;84.15;101305.84;4990564;28;20038;-81
2022/03/08 03:15:27;;;;;;;13.07;8.15;;;1.30;84.90;;;-1.53;84.76;101303.34;4990466;28;20097;-81
2022/03/08 03:17:57;;;;;;;15.75;8.52;;;1.30;85.00;;;-1.50;84.88;101297.84;4977285;28;20086;-81
2022/03/08 03:20:26;;;;;;;13.77;7.80;;;1.30;85.00;;;-1.40;84.40;101303.50;4972702;28;20046;-81
2022/03/08 03:22:54;;;;;;;14.20;8.02;;;1.30;85.10;;;-1.47;84.82;101297.66;4988959;28;20508;-81
2022/03/08 03:25:21;;;;;;;13.15;7.95;;;1.30;85.10;;;-1.46;85.22;101293.19;4990502;28;20088;-81
2022/03/08 03:27:49;;;;;;;15.02;8.13;;;1.30;85.30;;;-1.38;85.01;101290.94;4990144;28;20101;-81
2022/03/08 03:30:18;;;;;;;15.43;7.93;;;1.30;85.20;;;-1.41;84.98;101286.63;4988603;28;20049;-81
2022/03/08 03:32:46;;;;;;;13.10;8.43;;;1.30;85.30;;;-1.41;85.29;101275.06;4990394;28;20042;-81
2022/03/08 03:35:15;;;;;;;15.20;8.50;;;1.30;85.40;;;-1.42;85.05;101278.72;4990448;28;20145;-81
2022/03/08 03:37:43;;;;;;;14.00;8.07;;;1.30;85.50;;;-1.42;85.81;101281.38;4990114;28;20202;-81
2022/03/08 03:40:13;;;;;;;15.05;8.07;;;1.20;85.60;;;-1.39;85.41;101273.19;4989829;28;20057;-81
2022/03/08 03:42:40;;;;;;;15.10;8.13;;;1.30;85.80;;;-1.49;85.15;101274.66;4990054;28;20034;-81
2022/03/08 03:45:09;;;;;;;13.73;8.00;;;1.20;85.50;;;-1.53;85.03;101275.78;4990156;28;20060;-81
2022/03/08 03:47:36;;;;;;;14.35;8.02;;;1.20;85.40;;;-1.56;85.73;101271.50;4989740;28;20034;-81
2022/03/08 03:50:06;;;;;;;16.33;8.80;;;1.20;85.60;;;-1.50;85.94;101275.63;4989638;28;20050;-81
2022/03/08 03:52:35;;;;;;;14.25;8.38;;;1.20;85.90;;;-1.59;85.05;101277.84;4989893;28;20462;-81
2022/03/08 03:55:03;;;;;;;15.15;8.10;;;1.10;85.60;;;-1.55;85.46;101277.69;4990116;28;20093;-81
2022/03/08 03:57:30;;;;;;;16.95;8.57;;;1.20;85.80;;;-1.54;85.57;101274.94;4989719;28;20039;-81
2022/03/08 03:59:57;;;;;;;15.02;7.90;;;1.10;85.70;;;-1.60;86.12;101278.81;4989722;28;20575;-83
2022/03/08 04:02:25;;;;;;;14.88;8.00;;;1.10;85.80;;;-1.66;85.91;101276.47;5021402;22;20058;-91
2022/03/08 04:04:52;;;;;;;16.17;8.88;;;1.10;85.80;;;-1.55;86.11;101267.03;4970176;28;20042;-89
2022/03/08 04:07:19;;;;;;;14.90;8.93;;;1.10;86.10;;;-1.52;86.46;101266.81;4980739;28;20039;-91
2022/03/08 04:09:49;;;;;;;14.90;8.88;;;1.10;86.10;;;-1.64;86.11;101261.28;4989316;28;20144;-91
2022/03/08 04:12:17;;;;;;;14.57;7.72;;;1.10;86.10;;;-1.55;86.53;101267.03;4989221;28;20046;-90
2022/03/08 04:14:45;;;;;;;13.77;8.02;;;1.10;86.50;;;-1.53;86.35;101270.47;4993293;28;20453;-90
2022/03/08 04:17:12;;;;;;;14.77;8.35;;;1.10;86.50;;;-1.63;86.14;101260.31;4966046;28;20125;-91
2022/03/08 04:19:40;;;;;;;15.20;8.18;;;1.10;86.40;;;-1.76;86.47;101248.59;4973492;28;20097;-91
2022/03/08 04:22:07;;;;;;;15.15;8.50;;;1.10;86.30;;;-1.73;86.78;101256.44;4973756;28;20098;-90
2022/03/08 04:24:35;;;;;;;14.65;8.23;;;1.10;86.40;;;-1.68;86.74;101267.69;4975240;28;20046;-92
2022/03/08 04:27:05;;;;;;;13.38;8.70;;;1.10;86.60;;;-1.67;87.05;101266.78;4975749;28;20054;-90
2022/03/08 04:29:32;;;;;;;17.00;8.57;;;1.10;86.50;;;-1.69;87.09;101263.34;4981080;28;20039;-90
2022/03/08 04:32:26;;;;;;;14.85;8.05;;;1.10;86.50;;;-1.74;86.65;101256.53;4973443;28;20046;-91
2022/03/08 04:34:53;;;;;;;13.73;8.48;;;1.10;86.50;;;-1.72;86.54;101265.31;4976729;28;20784;-91
2022/03/08 04:37:22;;;;;;;16.75;9.57;;;1.00;86.40;;;-1.86;86.91;101247.44;4993061;28;20042;-90
2022/03/08 04:39:49;;;;;;;17.13;8.80;;;1.10;86.40;;;-1.77;87.41;101263.78;4975245;28;20086;-91
2022/03/08 04:42:18;;;;;;;13.85;8.70;;;1.00;86.50;;;-1.78;86.64;101255.84;4992860;28;20077;-90
2022/03/08 04:44:45;;;;;;;15.00;8.73;;;1.00;86.40;;;-1.72;87.00;101260.81;4973496;28;20571;-90
2022/03/08 04:47:13;;;;;;;15.27;9.02;;;1.00;86.60;;;-1.74;87.06;101262.72;4973583;28;20105;-92
2022/03/08 04:49:40;;;;;;;14.38;8.82;;;1.00;86.70;;;-1.72;87.27;101257.31;4973436;28;20105;-92
2022/03/08 04:52:08;;;;;;;14.02;8.60;;;0.90;86.80;;;-1.73;87.35;101264.47;4973130;28;20662;-91
2022/03/08 04:54:35;;;;;;;17.42;9.68;;;0.90;86.90;;;-1.71;87.61;101257.22;4973494;28;20047;-92
2022/03/08 04:57:05;;;;;;;16.52;10.02;;;1.10;87.20;;;-1.71;87.19;101243.00;4992617;28;20053;-91
2022/03/08 04:59:34;;;;;;;14.23;9.00;;;0.90;87.10;;;-1.70;87.33;101260.75;4991489;28;20050;-91
2022/03/08 05:02:01;;;;;;;19.65;9.85;;;0.90;87.20;;;-1.85;87.54;101249.13;4992334;28;20109;-90
2022/03/08 05:04:29;;;;;;;15.45;8.90;;;0.90;87.00;;;-1.86;86.92;101245.59;4975267;28;20058;-90
2022/03/08 05:06:56;;;;;;;16.08;9.35;;;0.90;87.00;;;-1.93;86.94;101246.88;4973109;28;20050;-90
2022/03/08 05:09:24;;;;;;;14.30;9.45;;;0.90;87.00;;;-1.91;87.65;101253.00;4990780;28;20057;-91
2022/03/08 05:11:53;;;;;;;17.52;9.20;;;0.90;87.10;;;-1.93;87.54;101254.03;4972795;28;20094;-91
2022/03/08 05:14:20;;;;;;;18.35;8.80;;;0.90;87.00;;;-1.91;87.50;101266.34;4973813;28;20050;-84
2022/03/08 05:16:51;;;;;;;14.27;9.27;;;0.90;87.00;;;-1.94;87.90;101260.31;5018849;22;20059;-93
2022/03/08 05:19:40;;;;;;;14.52;8.95;;;0.90;87.20;;;-1.93;87.95;101267.38;5027172;28;20122;-90
2022/03/08 05:25:01;;;;;;;15.68;9.35;;;0.90;87.50;;;-1.77;87.88;101263.78;5010876;28;20056;-91
2022/03/08 05:27:48;;;;;;;15.77;10.30;;;0.90;87.40;;;-1.73;88.47;101253.78;4994733;28;20663;-91
2022/03/08 05:30:35;;;;;;;14.15;8.77;;;0.90;87.60;;;-1.63;87.47;101252.28;5010590;28;20049;-91
2022/03/08 05:33:28;;;;;;;18.92;8.80;;;1.00;87.60;;;-1.53;87.25;101249.97;5010796;28;20049;-91
2022/03/08 05:36:01;;;;;;;17.58;9.48;;;0.90;87.60;;;-1.55;86.60;101248.34;5010195;28;20060;-90
2022/03/08 05:38:36;;;;;;;14.52;9.07;;;1.00;87.30;;;-1.65;86.13;101240.84;5010488;28;20045;-90
2022/03/08 05:41:08;;;;;;;14.93;9.18;;;0.90;87.10;;;-1.67;87.19;101248.09;5026301;28;20058;-90
2022/03/08 05:43:41;;;;;;;15.70;9.60;;;0.90;87.20;;;-1.75;86.93;101234.34;5026962;28;20047;-91
2022/03/08 05:46:11;;;;;;;16.58;9.20;;;0.90;87.10;;;-1.71;86.55;101257.22;5023133;28;20041;-90
2022/03/08 05:48:43;;;;;;;16.25;9.40;;;0.90;87.10;;;-1.84;87.15;101248.19;5022600;28;20555;-89
2022/03/08 05:51:16;;;;;;;18.77;9.10;;;0.90;87.20;;;-1.68;86.92;101266.84;5022632;28;20038;-90
2022/03/08 05:53:48;;;;;;;15.15;8.45;;;0.90;87.30;;;-1.79;86.91;101259.44;5023311;28;20092;-92
2022/03/08 05:56:22;;;;;;;15.23;8.48;;;0.90;87.20;;;-1.89;87.40;101264.44;5018615;28;20076;-92
2022/03/08 05:58:49;;;;;;;20.23;9.63;;;0.90;87.10;;;-1.81;87.63;101266.69;5010198;28;20046;-90
2022/03/08 06:01:19;;;;;;;17.83;9.60;;;0.90;87.40;;;-1.78;87.60;101263.84;5009058;28;20494;-90
2022/03/08 06:03:56;;;;;;;16.63;9.55;;;0.90;87.50;;;-1.75;87.79;101258.34;5009936;28;20132;-90
2022/03/08 06:06:30;;;;;;;18.50;9.95;;;0.90;87.60;;;-1.65;87.80;101251.53;5009181;28;20050;-91
2022/03/08 06:09:09;;;;;;;17.65;9.93;;;0.90;87.60;;;-1.71;87.42;101251.00;5026182;28;20042;-91
2022/03/08 06:11:42;;;;;;;17.40;9.63;;;0.90;87.50;;;-1.69;87.37;101255.31;5008957;28;20080;-90
2022/03/08 06:14:19;;;;;;;15.02;9.60;;;0.90;87.60;;;-1.74;87.78;101261.88;5025670;28;20366;-92
2022/03/08 06:16:57;;;;;;;20.17;9.77;;;0.90;87.70;;;-1.81;87.31;101256.00;5009029;28;20457;-90
2022/03/08 06:19:30;;;;;;;18.17;9.20;;;0.90;87.60;;;-1.79;87.65;101263.00;5027389;28;20046;-90
2022/03/08 06:21:58;;;;;;;21.13;10.52;;;0.90;87.50;;;-1.91;87.68;101254.81;5008811;28;20045;-92
2022/03/08 06:24:27;;;;;;;18.98;10.65;;;0.90;87.50;;;-1.88;87.83;101273.31;5024775;28;20566;-91
2022/03/08 06:26:54;;;;;;;23.38;9.73;;;0.90;87.50;;;-1.86;88.16;101274.09;4992249;28;20128;-91
2022/03/08 06:29:22;;;;;;;17.70;10.13;;;0.90;87.60;;;-1.79;88.87;101276.34;5005921;28;20045;-92
2022/03/08 06:31:49;;;;;;;21.75;9.95;;;0.90;87.70;;;-1.81;88.39;101274.69;4992584;28;20579;-92
2022/03/08 06:34:17;;;;;;;18.73;9.70;;;0.90;87.80;;;-1.72;89.04;101287.50;5012035;28;20422;-94
2022/03/08 06:36:56;;;;;;;18.17;10.27;;;0.90;87.90;;;-1.81;89.38;101277.34;5027920;28;20072;-92
2022/03/08 06:39:23;;;;;;;17.55;9.48;;;0.90;88.00;;;-1.81;89.26;101275.56;5027824;28;20042;-92
2022/03/08 06:41:51;;;;;;;20.17;10.20;;;1.10;88.10;;;-1.79;89.22;101276.34;5010526;28;20495;-89
2022/03/08 06:44:18;;;;;;;15.93;9.88;;;0.90;88.10;;;-1.72;89.32;101275.97;5007302;28;20042;-94
2022/03/08 06:46:46;;;;;;;19.85;10.68;;;0.90;88.30;;;-1.70;89.77;101279.41;5006696;28;20045;-91
2022/03/08 06:49:15;;;;;;;16.13;9.90;;;1.00;88.50;;;-1.53;89.22;101281.13;5025699;28;20045;-90
2022/03/08 06:51:43;;;;;;;16.45;9.52;;;0.90;88.50;;;-1.38;88.98;101289.13;5025630;28;20041;-91
2022/03/08 06:54:12;;;;;;;17.30;10.43;;;1.00;88.50;;;-1.27;87.79;101295.66;5027587;28;20079;-91
2022/03/08 06:56:43;;;;;;;16.88;10.10;;;1.00;88.50;;;-1.25;88.51;101301.78;5009492;28;20575;-92
2022/03/08 06:59:10;;;;;;;17.42;10.10;;;1.10;88.80;;;-1.23;88.33;101284.69;5031248;28;20337;-91
2022/03/08 07:01:38;;;;;;;18.85;10.38;;;1.10;89.00;;;-1.05;88.19;101308.59;5007878;28;20044;-91
2022/03/08 07:04:05;;;;;;;21.90;10.70;;;1.20;88.90;;;-1.02;87.24;101293.25;5028012;28;20050;-91
2022/03/08 07:06:33;;;;;;;19.65;11.07;;;1.20;88.60;;;-0.88;86.82;101303.13;5008143;28;20395;-91
2022/03/08 07:09:01;;;;;;;20.10;10.63;;;1.30;88.60;;;-0.74;86.49;101298.75;5008801;28;20528;-91
2022/03/08 07:11:35;;;;;;;19.30;10.43;;;1.30;88.50;;;-0.63;85.92;101296.28;5020884;28;20392;-91
2022/03/08 07:14:02;;;;;;;21.00;10.55;;;1.30;88.50;;;-0.51;85.45;101300.06;5021978;28;20046;-91
2022/03/08 07:16:30;;;;;;;17.45;10.82;;;1.40;88.10;;;-0.43;85.27;101301.28;5019206;28;20368;-92
2022/03/08 07:18:58;;;;;;;18.85;10.23;;;1.50;88.40;;;-0.35;85.01;101291.94;5025467;28;20033;-90
2022/03/08 07:21:25;;;;;;;17.13;10.57;;;1.50;88.30;;;-0.22;85.11;101291.06;5004500;28;20577;-92
2022/03/08 07:23:53;;;;;;;17.42;10.32;;;1.60;88.20;;;-0.08;83.71;101300.91;5026434;28;20038;-92
2022/03/08 07:26:20;;;;;;;18.55;11.27;;;1.60;88.10;;;0.00;83.82;101292.44;5025697;28;20162;-90
2022/03/08 07:28:50;;;;;;;16.92;10.23;;;1.70;87.90;;;0.07;83.28;101293.72;5025939;28;20092;-90
2022/03/08 07:31:20;;;;;;;16.60;10.75;;;1.70;87.80;;;0.07;82.36;101277.66;5016069;28;20128;-91
2022/03/08 07:33:47;;;;;;;18.35;9.93;;;1.80;87.40;;;0.27;82.10;101281.75;5026122;28;20144;-91
2022/03/08 07:36:17;;;;;;;16.60;9.90;;;1.90;87.20;;;0.42;81.35;101298.66;4978291;28;20485;-91
2022/03/08 07:38:45;;;;;;;18.00;10.38;;;2.00;86.70;;;0.51;81.15;101292.66;5009809;28;20072;-92
2022/03/08 07:41:13;;;;;;;20.35;9.80;;;2.00;86.40;;;0.61;80.83;101292.94;5004553;28;20045;-92
2022/03/08 07:43:43;;;;;;;16.35;10.25;;;2.20;86.30;;;0.74;80.34;101287.63;4996583;28;20041;-92
2022/03/08 07:46:15;;;;;;;20.63;10.55;;;2.20;85.80;;;0.84;79.57;101287.84;5015080;28;20053;-92
2022/03/08 07:48:44;;;;;;;20.25;10.13;;;2.30;85.40;;;0.92;79.67;101286.41;5025877;28;20445;-91
2022/03/08 07:51:11;;;;;;;17.38;9.48;;;2.40;85.50;;;0.96;78.94;101279.00;5007929;28;20041;-91
2022/03/08 07:53:39;;;;;;;14.05;8.93;;;2.50;85.40;;;1.10;78.84;101281.59;5026760;28;20044;-92
2022/03/08 07:56:07;;;;;;;17.90;9.00;;;2.60;84.80;;;1.24;78.50;101269.06;5025762;28;20050;-93
2022/03/08 07:58:37;;;;;;;14.20;9.25;;;2.60;84.60;;;1.47;77.75;101275.53;5037009;23;20133;-89
2022/03/08 08:01:05;;;;;;;15.43;9.43;;;2.80;84.50;;;1.59;77.76;101271.13;5020068;28;20053;-91
2022/03/08 08:03:34;;;;;;;17.40;9.70;;;2.90;84.60;;;1.73;76.51;101271.88;5008982;28;20100;-87
2022/03/08 08:06:02;;;;;;;18.00;9.30;;;2.90;83.80;;;1.86;76.58;101282.59;5006555;28;20085;-87
2022/03/08 08:08:30;;;;;;;18.02;9.23;;;3.00;83.40;;;1.97;75.49;101283.66;5006759;28;20034;-87
2022/03/08 08:10:57;;;;;;;14.95;9.25;;;3.10;83.20;;;2.05;74.88;101281.28;5008467;28;20149;-87
2022/03/08 08:13:24;;;;;;;15.45;9.40;;;3.20;82.80;;;2.11;75.07;101278.16;5009436;28;20046;-87
2022/03/08 08:15:52;;;;;;;18.48;9.18;;;3.30;82.90;;;2.16;74.84;101281.38;4989725;28;20057;-86
2022/03/08 08:18:20;;;;;;;14.48;9.23;;;3.40;82.50;;;2.24;73.99;101281.66;5004310;28;20037;-87
2022/03/08 08:20:49;;;;;;;17.77;9.27;;;3.50;82.30;;;2.32;74.78;101283.78;5008295;28;20049;-87
2022/03/08 08:23:17;;;;;;;18.45;9.65;;;3.60;82.20;;;2.42;73.53;101278.59;5009212;28;20046;-89
2022/03/08 08:25:44;;;;;;;17.40;9.05;;;3.70;81.90;;;2.50;73.83;101289.66;4989788;28;20578;-87
2022/03/08 08:28:11;;;;;;;14.75;9.57;;;3.80;81.60;;;2.53;73.34;101286.72;5006793;28;20425;-87
2022/03/08 08:30:38;;;;;;;18.70;9.18;;;3.90;81.30;;;2.61;73.52;101284.34;5008534;28;20129;-88
2022/03/08 08:33:06;;;;;;;15.50;9.15;;;3.90;80.90;;;2.70;72.83;101283.66;5008942;28;20125;-87
2022/03/08 08:35:33;;;;;;;17.00;9.52;;;4.10;80.90;;;2.76;73.04;101276.09;5008880;28;20045;-87
2022/03/08 08:38:02;;;;;;;18.00;9.23;;;4.10;80.20;;;2.85;73.50;101270.00;4999689;28;20049;-88
2022/03/08 08:40:30;;;;;;;16.17;8.50;;;4.20;80.00;;;2.93;72.80;101263.09;4999852;28;20496;-88
2022/03/08 08:42:57;;;;;;;15.00;9.32;;;4.30;80.10;;;3.02;72.95;101266.06;4994425;28;20073;-89
2022/03/08 08:45:24;;;;;;;16.63;8.73;;;4.40;79.40;;;3.12;71.36;101257.16;5001998;28;20116;-88
2022/03/08 08:47:52;;;;;;;11.77;7.25;;;4.50;79.20;;;3.27;68.73;101260.47;4999513;28;20397;-88
2022/03/08 08:50:19;;;;;;;12.38;7.82;;;4.70;77.50;;;3.40;69.25;101254.16;4999002;28;20038;-88
2022/03/08 08:52:46;;;;;;;15.25;8.05;;;4.80;77.00;;;3.58;68.69;101251.84;4989622;28;20056;-87
2022/03/08 08:55:15;;;;;;;12.40;7.07;;;4.90;76.60;;;3.63;67.89;101252.34;5005287;28;20451;-88
2022/03/08 08:57:43;;;;;;;12.82;6.97;;;5.00;75.60;;;3.75;67.75;101270.25;4998147;28;20068;-87
2022/03/08 09:00:12;;;;;;;11.80;6.35;;;5.10;75.20;;;3.84;67.06;101256.03;4989562;28;20500;-87
2022/03/08 09:02:42;;;;;;;11.95;6.22;;;5.20;73.80;;;3.91;65.91;101249.16;5008060;28;20432;-87
2022/03/08 09:05:10;;;;;;;9.77;6.28;;;5.30;73.10;;;3.97;63.77;101247.81;5000099;28;20072;-92
2022/03/08 09:07:38;;;;;;;7.85;5.50;;;5.40;72.40;;;4.09;63.09;101259.44;5001140;28;20037;-92
2022/03/08 09:10:07;;;;;;;8.77;5.82;;;5.70;71.80;;;4.18;62.86;101244.38;5007448;28;20117;-93
2022/03/08 09:12:36;;;;;;;10.30;5.80;;;5.60;70.80;;;4.24;60.73;101238.47;4995190;28;20042;-91
2022/03/08 09:15:05;;;;;;;8.80;5.93;;;5.60;69.50;;;4.30;60.05;101244.22;4991418;28;20045;-92
2022/03/08 09:17:32;;;;;;;9.50;5.65;;;5.70;69.40;;;4.40;60.45;101243.44;4984893;28;20050;-91
2022/03/08 09:20:02;;;;;;;11.27;5.80;;;5.80;68.50;;;4.41;60.88;101231.69;4996373;28;20045;-93
2022/03/08 09:22:29;;;;;;;9.85;5.90;;;5.90;68.20;;;4.41;59.97;101223.63;5008945;28;20038;-92
2022/03/08 09:24:57;;;;;;;12.35;5.63;;;6.00;67.90;;;4.50;59.61;101228.25;5012633;28;20046;-92
2022/03/08 09:27:24;;;;;;;8.32;5.50;;;6.00;66.90;;;4.61;58.82;101212.03;5004952;28;20042;-91
2022/03/08 09:29:53;;;;;;;8.95;5.35;;;6.10;67.10;;;4.67;58.83;101222.28;4984183;28;20524;-91
2022/03/08 09:32:21;;;;;;;8.85;5.47;;;6.20;66.80;;;4.79;59.34;101222.25;5011612;28;20052;-93
2022/03/08 09:34:48;;;;;;;10.50;6.30;;;6.20;66.60;;;4.78;58.31;101201.66;5011222;28;20053;-91
2022/03/08 09:37:16;;;;;;;15.00;5.93;;;6.30;67.00;;;4.78;57.66;101210.63;5006964;28;20068;-92
2022/03/08 09:39:43;;;;;;;10.93;5.72;;;6.30;65.90;;;4.82;56.68;101213.91;5003648;28;20126;-91
2022/03/08 09:42:11;;;;;;;8.25;5.50;;;6.30;65.50;;;4.87;55.91;101223.31;4996081;28;20042;-91
2022/03/08 09:44:38;;;;;;;9.55;6.00;;;6.30;65.40;;;4.80;56.46;101210.50;4974554;28;20053;-91
2022/03/08 09:47:07;;;;;;;8.80;5.57;;;6.30;65.50;;;4.81;56.89;101223.81;4999103;28;20046;-91
2022/03/08 09:49:35;;;;;;;8.25;5.22;;;6.30;64.30;;;4.79;56.11;101208.78;5009473;28;20072;-91
2022/03/08 09:52:03;;;;;;;8.95;5.80;;;6.30;65.00;;;4.81;55.77;101209.50;4989436;28;20084;-94
2022/03/08 09:54:30;;;;;;;8.63;5.90;;;6.20;64.00;;;4.82;56.17;101209.38;5004428;28;20072;-92
2022/03/08 09:56:57;;;;;;;8.45;5.88;;;6.20;64.30;;;4.79;55.65;101200.69;5002973;28;20068;-93
2022/03/08 09:59:29;;;;;;;7.55;5.20;;;6.20;64.20;;;4.81;55.48;101201.41;4988427;28;20049;-92
2022/03/08 10:01:57;;;;;;;8.18;5.18;;;6.30;64.10;;;4.83;56.09;101194.03;5008537;28;20077;-91
2022/03/08 10:04:26;;;;;;;7.82;5.35;;;6.30;63.90;;;4.90;55.12;101197.94;4998496;28;20065;-93
2022/03/08 10:06:53;;;;;;;9.20;5.10;;;6.30;63.50;;;4.94;54.97;101201.22;5001950;28;20053;-93
2022/03/08 10:09:22;;;;;;;13.73;5.18;;;6.30;64.20;;;4.96;55.10;101200.09;5001910;28;20072;-92
2022/03/08 10:11:52;;;;;;;8.70;5.35;;;6.30;63.40;;;4.98;54.50;101200.81;5008253;28;20455;-91
2022/03/08 10:14:37;;;;;;;8.93;5.60;;;6.40;63.10;;;4.99;53.60;101191.75;5007286;28;20073;-93
2022/03/08 10:17:05;;;;;;;8.07;4.90;;;6.40;62.00;;;5.05;52.98;101201.16;5003785;28;20044;-91
2022/03/08 10:19:45;;;;;;;11.23;5.15;;;6.40;62.00;;;5.03;53.14;101182.41;4991622;28;20046;-91
2022/03/08 10:22:25;;;;;;;9.82;5.43;;;6.50;61.90;;;5.10;53.02;101180.00;4989686;28;20048;-92
2022/03/08 10:25:09;;;;;;;8.20;5.13;;;6.50;61.70;;;5.21;52.58;101184.50;5002283;28;20053;-90
2022/03/08 10:27:37;;;;;;;9.43;5.22;;;6.60;60.70;;;5.27;52.45;101179.44;4980748;28;20113;-93
2022/03/08 10:30:09;;;;;;;8.48;4.72;;;6.70;61.60;;;5.31;52.39;101174.59;4987250;28;20415;-92
2022/03/08 10:32:38;;;;;;;9.45;5.55;;;6.70;61.70;;;5.28;52.05;101169.47;4986763;28;20038;-91
2022/03/08 10:35:11;;;;;;;8.73;5.28;;;6.70;61.10;;;5.33;51.33;101161.84;5008131;28;20038;-92
2022/03/08 10:37:40;;;;;;;11.50;5.47;;;6.70;60.90;;;5.44;52.23;101169.81;4985477;28;20046;-92
2022/03/08 10:40:12;;;;;;;9.40;5.40;;;6.80;61.10;;;5.49;51.65;101155.94;4999769;28;20496;-92
2022/03/08 10:42:41;;;;;;;10.95;5.60;;;6.90;60.30;;;5.58;51.45;101154.25;4989606;28;20050;-91
2022/03/08 10:45:12;;;;;;;10.32;5.20;;;7.00;60.10;;;5.55;51.48;101151.84;4986514;28;20038;-92